Time;durP1;ratioP1;P1;durP2;ratioP2;P2;SDS_P1;SDS_P2;PMS_P1;PMS_P2;Temp;Humidity;BMP_temperature;BMP_pressure;BME280_temperature;BME280_humidity;BME280_pressure;Samples;Min_cycle;Max_cycle;Signal;HPM_P1;HPM_P2
2023/04/13 00:01:34;;;;;;;2.93;2.70;;;13.90;1.00;;;;;;5047908;28;20666;-55
2023/04/13 00:04:03;;;;;;;2.60;2.40;;;13.90;1.00;;;;;;5049653;28;20642;-56
2023/04/13 00:06:28;;;;;;;3.90;3.47;;;13.80;1.00;;;;;;5045585;28;20662;-58
2023/04/13 00:08:54;;;;;;;3.50;3.20;;;13.70;1.00;;;;;;5048219;28;20497;-57
2023/04/13 00:11:20;;;;;;;3.00;2.70;;;13.80;1.00;;;;;;5048721;28;20230;-57
2023/04/13 00:13:46;;;;;;;3.10;2.57;;;13.80;1.00;;;;;;5049700;28;20216;-58
2023/04/13 00:16:14;;;;;;;2.90;2.60;;;13.80;1.00;;;;;;5048577;28;20544;-57
2023/04/13 00:18:40;;;;;;;2.70;2.50;;;13.80;1.00;;;;;;5049833;28;20188;-56
2023/04/13 00:21:06;;;;;;;4.50;2.30;;;13.70;1.00;;;;;;5042437;28;21197;-57
2023/04/13 00:23:32;;;;;;;1.90;1.80;;;13.70;1.00;;;;;;5049213;28;20200;-55
2023/04/13 00:26:00;;;;;;;3.70;1.90;;;13.60;1.00;;;;;;5047531;28;20557;-56
2023/04/13 00:28:26;;;;;;;1.90;1.80;;;13.70;1.00;;;;;;5050861;28;20657;-56
2023/04/13 00:30:51;;;;;;;3.03;1.93;;;13.60;1.00;;;;;;5047865;28;20529;-55
2023/04/13 00:33:17;;;;;;;1.57;1.40;;;13.60;1.00;;;;;;5049322;28;20503;-55
2023/04/13 00:35:43;;;;;;;1.90;1.80;;;13.60;1.00;;;;;;5047642;28;20193;-56
2023/04/13 00:38:10;;;;;;;1.67;1.57;;;13.60;1.00;;;;;;5046983;28;20185;-57
2023/04/13 00:40:36;;;;;;;2.40;1.60;;;13.60;1.00;;;;;;5048343;28;20196;-56
2023/04/13 00:43:04;;;;;;;3.37;1.70;;;13.60;1.00;;;;;;5048088;28;20931;-57
2023/04/13 00:45:31;;;;;;;2.10;1.93;;;13.60;1.00;;;;;;5046577;28;20801;-56
2023/04/13 00:47:58;;;;;;;2.60;1.60;;;13.60;1.00;;;;;;5048998;28;20435;-56
2023/04/13 00:50:24;;;;;;;2.30;1.83;;;13.50;1.00;;;;;;5045218;28;20549;-56
2023/04/13 00:52:50;;;;;;;2.10;1.50;;;13.50;1.00;;;;;;5049415;28;20888;-55
2023/04/13 00:55:20;;;;;;;1.63;1.40;;;13.60;1.00;;;;;;5045977;28;20481;-56
2023/04/13 00:57:48;;;;;;;2.07;1.50;;;13.50;1.00;;;;;;5049295;28;20772;-56
2023/04/13 01:00:19;;;;;;;1.87;1.27;;;13.50;1.00;;;;;;5048119;28;20848;-56
2023/04/13 01:02:45;;;;;;;1.87;1.03;;;13.50;1.00;;;;;;5047221;28;20486;-55
2023/04/13 01:05:13;;;;;;;1.07;0.97;;;13.50;1.00;;;;;;5045586;28;20482;-56
2023/04/13 01:08:07;;;;;;;2.00;1.20;;;13.50;1.00;;;;;;5048722;28;20257;-56
2023/04/13 01:10:41;;;;;;;1.10;1.00;;;13.50;1.00;;;;;;5046839;28;20995;-57
2023/04/13 01:13:20;;;;;;;1.30;0.90;;;13.50;1.00;;;;;;5036643;28;21745;-57
2023/04/13 01:16:15;;;;;;;1.20;1.10;;;13.50;1.00;;;;;;5048917;28;20439;-56
2023/04/13 01:18:44;;;;;;;1.63;1.40;;;13.50;1.00;;;;;;5042297;28;20455;-56
2023/04/13 01:21:13;;;;;;;1.23;1.10;;;13.40;1.00;;;;;;5046715;28;20451;-55
2023/04/13 01:23:49;;;;;;;2.30;1.47;;;13.40;1.00;;;;;;5048392;28;20533;-57
2023/04/13 01:26:16;;;;;;;1.63;1.53;;;13.40;1.00;;;;;;5047828;28;21993;-56
2023/04/13 01:28:41;;;;;;;1.30;1.20;;;13.40;1.00;;;;;;5060708;28;20446;-56
2023/04/13 01:31:11;;;;;;;1.20;0.93;;;13.40;1.00;;;;;;5047416;28;20496;-56
2023/04/13 01:33:40;;;;;;;1.23;1.13;;;13.40;1.00;;;;;;5044533;28;20956;-56
2023/04/13 01:36:06;;;;;;;1.20;1.10;;;13.40;1.00;;;;;;5047874;28;20450;-57
2023/04/13 01:38:32;;;;;;;1.20;1.07;;;13.30;1.00;;;;;;5045428;28;20999;-55
2023/04/13 01:40:57;;;;;;;1.00;0.90;;;13.30;1.00;;;;;;5047944;28;20446;-56
2023/04/13 01:43:25;;;;;;;1.00;0.87;;;13.30;1.00;;;;;;5062491;28;20707;-55
2023/04/13 01:46:12;;;;;;;2.80;1.33;;;13.20;1.00;;;;;;5054057;28;20212;-57
2023/04/13 01:48:52;;;;;;;1.43;1.33;;;13.20;1.00;;;;;;5056673;28;20430;-56
2023/04/13 01:51:21;;;;;;;1.30;1.20;;;13.10;1.00;;;;;;5054032;28;20438;-56
2023/04/13 01:54:12;;;;;;;1.50;1.30;;;13.10;1.00;;;;;;5052330;28;20438;-57
2023/04/13 01:56:39;;;;;;;1.30;1.20;;;13.20;1.00;;;;;;5048170;28;20477;-57
2023/04/13 01:59:06;;;;;;;1.27;1.10;;;13.20;1.00;;;;;;5052092;28;20454;-55
2023/04/13 02:01:31;;;;;;;1.67;1.37;;;13.10;1.00;;;;;;5045669;28;20446;-56
2023/04/13 02:03:57;;;;;;;1.27;1.17;;;13.00;1.00;;;;;;5052194;28;20784;-56
2023/04/13 02:06:23;;;;;;;1.30;1.10;;;12.90;1.00;;;;;;5049699;28;20285;-55
2023/04/13 02:08:48;;;;;;;2.37;1.40;;;12.80;1.00;;;;;;5052134;28;20250;-55
2023/04/13 02:11:17;;;;;;;2.07;1.23;;;12.90;1.00;;;;;;5046803;28;20944;-57
2023/04/13 02:13:43;;;;;;;1.30;1.20;;;12.90;1.00;;;;;;5051771;28;20188;-57
2023/04/13 02:16:09;;;;;;;1.77;1.00;;;12.90;1.00;;;;;;5044346;28;20671;-57
2023/04/13 02:18:35;;;;;;;2.53;1.50;;;12.80;1.00;;;;;;5047738;28;20955;-56
2023/04/13 02:21:11;;;;;;;1.73;1.10;;;12.90;1.00;;;;;;5051609;28;20184;-56
2023/04/13 02:23:39;;;;;;;1.33;1.10;;;12.80;1.00;;;;;;5049478;28;20796;-57
2023/04/13 02:26:12;;;;;;;1.37;1.00;;;12.80;1.00;;;;;;5049465;28;20517;-56
2023/04/13 02:28:39;;;;;;;3.30;1.10;;;12.90;1.00;;;;;;5051287;28;20530;-56
2023/04/13 02:31:05;;;;;;;2.10;1.30;;;12.90;1.00;;;;;;5049686;28;20952;-56
2023/04/13 02:33:31;;;;;;;1.23;1.10;;;12.90;1.00;;;;;;5048644;28;20442;-55
2023/04/13 02:35:58;;;;;;;1.30;1.17;;;12.90;1.00;;;;;;5049571;28;20458;-55
2023/04/13 02:38:24;;;;;;;2.10;1.17;;;12.90;1.00;;;;;;5050796;28;21027;-56
2023/04/13 02:40:59;;;;;;;1.23;1.10;;;12.80;1.00;;;;;;5048482;28;20545;-56
2023/04/13 02:43:26;;;;;;;1.10;1.00;;;12.70;1.00;;;;;;5051556;28;20463;-55
2023/04/13 02:45:52;;;;;;;1.90;1.30;;;12.60;1.00;;;;;;5054103;28;20467;-57
2023/04/13 02:48:18;;;;;;;1.10;1.03;;;12.70;1.00;;;;;;5048562;28;20946;-56
2023/04/13 02:50:45;;;;;;;0.97;0.97;;;12.70;1.00;;;;;;5049495;28;20291;-57
2023/04/13 02:53:11;;;;;;;1.80;1.57;;;12.70;1.00;;;;;;5048015;28;20443;-56
2023/04/13 02:55:37;;;;;;;1.80;1.00;;;12.60;1.00;;;;;;5050981;28;20494;-55
2023/04/13 02:58:03;;;;;;;0.80;0.80;;;12.50;1.00;;;;;;5049650;28;20455;-56
2023/04/13 03:00:31;;;;;;;1.57;1.27;;;12.50;1.00;;;;;;5046003;28;20932;-57
2023/04/13 03:02:57;;;;;;;0.90;0.80;;;12.50;1.00;;;;;;5048507;28;20513;-54
2023/04/13 03:05:23;;;;;;;1.80;1.17;;;12.60;1.00;;;;;;5050216;28;20964;-56
2023/04/13 03:07:48;;;;;;;1.83;0.90;;;12.50;1.00;;;;;;5048458;28;20439;-56
2023/04/13 03:10:14;;;;;;;1.80;1.20;;;12.50;1.00;;;;;;5045866;28;20207;-56
2023/04/13 03:12:40;;;;;;;1.00;0.80;;;12.60;1.00;;;;;;5050913;28;20177;-56
2023/04/13 03:15:09;;;;;;;1.23;1.10;;;12.50;1.00;;;;;;5049069;28;20184;-56
2023/04/13 03:17:39;;;;;;;1.60;1.20;;;12.30;1.00;;;;;;5069152;28;20477;-55
2023/04/13 03:20:11;;;;;;;1.00;0.97;;;12.20;1.00;;;;;;5048684;28;20959;-56
2023/04/13 03:22:38;;;;;;;0.80;0.80;;;12.20;1.00;;;;;;5050383;28;20431;-56
2023/04/13 03:25:04;;;;;;;2.10;1.07;;;12.20;1.00;;;;;;5048540;28;20434;-55
2023/04/13 03:27:29;;;;;;;1.50;0.80;;;12.30;1.00;;;;;;5050466;28;20434;-58
2023/04/13 03:29:55;;;;;;;1.50;1.07;;;12.20;1.00;;;;;;5047136;28;21078;-56
2023/04/13 03:32:21;;;;;;;1.40;0.80;;;12.30;1.00;;;;;;5050545;28;20180;-56
2023/04/13 03:34:46;;;;;;;1.53;0.83;;;12.40;1.00;;;;;;5047877;28;20450;-56
2023/04/13 03:37:12;;;;;;;0.70;0.70;;;12.40;1.00;;;;;;5048239;28;20207;-56
2023/04/13 03:39:38;;;;;;;1.67;0.70;;;12.30;1.00;;;;;;5047644;28;20297;-55
2023/04/13 03:42:04;;;;;;;1.40;0.70;;;12.40;1.00;;;;;;5048121;28;20196;-55
2023/04/13 03:44:30;;;;;;;1.93;0.60;;;12.40;1.00;;;;;;5048817;28;20184;-56
2023/04/13 03:46:55;;;;;;;0.77;0.77;;;12.30;1.00;;;;;;5045703;28;20470;-56
2023/04/13 03:49:21;;;;;;;1.90;0.97;;;12.30;1.00;;;;;;5049033;28;20454;-55
2023/04/13 03:51:47;;;;;;;1.20;0.60;;;12.40;1.00;;;;;;5049125;28;20185;-56
2023/04/13 03:54:12;;;;;;;1.17;0.80;;;12.30;1.00;;;;;;5047508;28;20225;-56
2023/04/13 03:56:38;;;;;;;1.17;0.63;;;12.20;1.00;;;;;;5048444;28;20200;-55
2023/04/13 03:59:04;;;;;;;2.33;1.07;;;12.20;1.00;;;;;;5048029;28;20664;-55
2023/04/13 04:01:29;;;;;;;1.40;0.60;;;12.10;1.00;;;;;;5048982;28;20189;-56
2023/04/13 04:03:56;;;;;;;0.50;0.50;;;12.00;1.00;;;;;;5047244;28;20189;-55
2023/04/13 04:06:22;;;;;;;0.87;0.57;;;12.10;1.00;;;;;;5049596;28;20330;-54
2023/04/13 04:08:48;;;;;;;2.30;0.60;;;12.00;1.00;;;;;;5045257;28;20521;-55
2023/04/13 04:11:15;;;;;;;0.70;0.60;;;12.00;1.00;;;;;;5046554;28;20450;-56
2023/04/13 04:13:41;;;;;;;1.00;0.70;;;11.90;1.00;;;;;;5047880;28;20940;-55
2023/04/13 04:16:07;;;;;;;0.67;0.50;;;11.80;1.00;;;;;;5048318;28;20473;-55
2023/04/13 04:18:34;;;;;;;1.03;1.03;;;11.90;1.00;;;;;;5044089;28;20193;-57
2023/04/13 04:21:01;;;;;;;0.97;0.60;;;11.90;1.00;;;;;;5049237;28;20439;-56
2023/04/13 04:23:27;;;;;;;0.70;0.60;;;11.90;1.00;;;;;;5048628;28;20507;-56
2023/04/13 04:25:53;;;;;;;1.00;0.73;;;11.90;1.00;;;;;;5049359;28;20544;-57
2023/04/13 04:28:19;;;;;;;1.27;0.80;;;11.80;1.00;;;;;;5047784;28;20451;-56
2023/04/13 04:30:52;;;;;;;1.03;0.83;;;11.90;1.00;;;;;;5048302;28;20435;-56
2023/04/13 04:33:21;;;;;;;1.40;0.77;;;12.00;1.00;;;;;;5047271;28;20197;-55
2023/04/13 04:35:50;;;;;;;0.93;0.77;;;12.00;1.00;;;;;;5049302;28;20447;-56
2023/04/13 04:38:16;;;;;;;2.50;0.80;;;12.00;1.00;;;;;;5044374;28;20455;-56
2023/04/13 04:40:45;;;;;;;4.23;2.13;;;12.10;1.00;;;;;;5052598;28;20480;-55
2023/04/13 04:43:12;;;;;;;1.00;0.67;;;12.00;1.00;;;;;;5059036;28;20516;-55
2023/04/13 04:45:42;;;;;;;1.90;0.90;;;11.90;1.00;;;;;;5046552;28;20466;-56
2023/04/13 04:48:11;;;;;;;1.73;0.90;;;11.80;1.00;;;;;;5045531;28;20492;-57
2023/04/13 04:50:36;;;;;;;2.53;1.30;;;11.80;1.00;;;;;;5047851;28;20451;-57
2023/04/13 04:53:03;;;;;;;1.47;0.90;;;11.70;1.00;;;;;;5047987;28;20458;-56
2023/04/13 04:55:29;;;;;;;1.87;0.90;;;11.90;1.00;;;;;;5044385;28;20315;-56
2023/04/13 04:57:55;;;;;;;6.13;1.00;;;11.90;1.00;;;;;;5047895;28;20554;-56
2023/04/13 05:00:20;;;;;;;0.90;0.90;;;11.90;1.00;;;;;;5048544;28;20542;-55
2023/04/13 05:02:47;;;;;;;1.57;0.77;;;11.90;1.00;;;;;;5045476;28;20964;-57
2023/04/13 05:05:13;;;;;;;1.67;1.30;;;12.00;1.00;;;;;;5044501;28;20821;-57
2023/04/13 05:07:38;;;;;;;1.87;1.73;;;12.20;1.00;;;;;;5046837;28;20431;-56
2023/04/13 05:10:06;;;;;;;0.93;0.83;;;12.30;1.00;;;;;;5047076;28;20223;-57
2023/04/13 05:12:31;;;;;;;1.67;1.30;;;12.10;1.00;;;;;;5044778;28;20187;-57
2023/04/13 05:14:57;;;;;;;7.00;1.20;;;12.20;1.00;;;;;;5050320;28;21001;-56
2023/04/13 05:17:24;;;;;;;1.20;0.70;;;12.30;1.00;;;;;;5052867;28;20188;-56
2023/04/13 05:19:50;;;;;;;1.37;1.00;;;12.30;1.00;;;;;;5047834;28;20228;-56
2023/04/13 05:22:16;;;;;;;1.03;0.90;;;12.40;1.00;;;;;;5052323;28;20529;-56
2023/04/13 05:24:42;;;;;;;0.77;0.77;;;12.40;1.00;;;;;;5047750;28;20449;-56
2023/04/13 05:27:08;;;;;;;0.97;0.90;;;12.40;1.00;;;;;;5050625;28;20565;-56
2023/04/13 05:29:34;;;;;;;0.80;0.80;;;12.40;1.00;;;;;;5052821;28;20188;-57
2023/04/13 05:32:01;;;;;;;2.80;1.00;;;12.30;1.00;;;;;;5051002;28;20446;-56
2023/04/13 05:34:27;;;;;;;1.17;1.07;;;12.30;1.00;;;;;;5050215;28;20434;-55
2023/04/13 05:36:52;;;;;;;1.63;1.17;;;12.40;1.00;;;;;;5051218;28;20482;-57
2023/04/13 05:39:19;;;;;;;2.40;0.90;;;12.20;1.00;;;;;;5050475;28;20494;-56
2023/04/13 05:41:45;;;;;;;0.77;0.50;;;12.20;1.00;;;;;;5046682;28;20567;-56
2023/04/13 05:44:10;;;;;;;2.33;0.60;;;12.20;1.00;;;;;;5052278;28;20516;-55
2023/04/13 05:46:36;;;;;;;1.20;0.77;;;12.10;1.00;;;;;;5049772;28;20568;-56
2023/04/13 05:49:02;;;;;;;0.87;0.60;;;12.00;1.00;;;;;;5050272;28;20207;-56
2023/04/13 05:51:31;;;;;;;1.70;0.73;;;12.10;1.00;;;;;;5051308;28;20300;-56
2023/04/13 05:53:57;;;;;;;2.50;1.10;;;12.10;99.90;;;;;;5060664;28;20451;-56
2023/04/13 05:56:28;;;;;;;2.00;1.37;;;12.10;99.90;;;;;;5048789;28;20460;-56
2023/04/13 05:58:54;;;;;;;5.53;0.90;;;12.10;1.00;;;;;;5043134;28;20462;-56
2023/04/13 06:01:22;;;;;;;2.00;0.80;;;12.10;99.90;;;;;;5045493;28;20462;-57
2023/04/13 06:03:47;;;;;;;3.37;1.30;;;12.20;99.90;;;;;;5048841;28;20447;-58
2023/04/13 06:06:16;;;;;;;1.80;0.80;;;12.20;99.90;;;;;;5050338;28;20532;-57
2023/04/13 06:08:42;;;;;;;3.33;1.17;;;12.20;99.90;;;;;;5052573;28;20646;-57
2023/04/13 06:11:08;;;;;;;2.37;1.13;;;12.20;99.90;;;;;;5051634;28;20477;-56
2023/04/13 06:13:34;;;;;;;2.00;1.57;;;12.20;99.90;;;;;;5051250;28;20451;-56
2023/04/13 06:16:00;;;;;;;1.00;0.77;;;12.10;99.90;;;;;;5048881;28;21001;-58
2023/04/13 06:18:26;;;;;;;1.00;0.80;;;12.10;99.90;;;;;;5049770;28;20218;-58
2023/04/13 06:20:52;;;;;;;0.80;0.60;;;12.10;99.90;;;;;;5045290;28;20517;-57
2023/04/13 06:23:17;;;;;;;0.80;0.50;;;12.10;99.90;;;;;;5047521;28;21109;-56
2023/04/13 06:25:44;;;;;;;1.80;0.90;;;12.00;99.90;;;;;;5049242;28;20616;-57
2023/04/13 06:28:11;;;;;;;1.63;0.70;;;11.90;99.90;;;;;;5047545;28;20857;-56
2023/04/13 06:30:37;;;;;;;2.60;0.73;;;12.00;99.90;;;;;;5046861;28;20455;-57
2023/04/13 06:33:04;;;;;;;9.23;1.17;;;12.00;99.90;;;;;;5050907;28;20466;-56
2023/04/13 06:35:30;;;;;;;1.30;0.80;;;12.00;99.90;;;;;;5050828;28;20776;-57
2023/04/13 06:37:59;;;;;;;2.17;1.03;;;12.00;99.90;;;;;;5049427;28;20445;-57
2023/04/13 06:40:26;;;;;;;1.80;0.80;;;12.00;99.90;;;;;;5050427;28;20446;-57
2023/04/13 06:42:52;;;;;;;3.20;1.20;;;12.20;99.90;;;;;;5050643;28;21284;-58
2023/04/13 06:45:18;;;;;;;2.87;0.73;;;12.10;99.90;;;;;;5046639;28;20483;-58
2023/04/13 06:47:44;;;;;;;2.17;0.90;;;12.10;99.90;;;;;;5047727;28;20451;-58
2023/04/13 06:50:14;;;;;;;0.93;0.80;;;12.20;99.90;;;;;;5043150;28;20508;-59
2023/04/13 06:52:45;;;;;;;1.00;0.90;;;12.20;99.90;;;;;;5048894;28;20443;-58
2023/04/13 06:55:11;;;;;;;1.30;0.83;;;12.20;99.90;;;;;;5050646;28;21136;-58
2023/04/13 06:57:37;;;;;;;4.80;2.10;;;12.10;99.90;;;;;;5061081;28;20467;-57
2023/04/13 07:00:05;;;;;;;1.57;1.27;;;12.00;99.90;;;;;;5048106;28;20621;-59
2023/04/13 07:02:30;;;;;;;1.07;0.80;;;12.30;99.90;;;;;;5051260;28;20197;-57
2023/04/13 07:04:57;;;;;;;2.20;0.80;;;12.30;99.90;;;;;;5048900;28;20439;-58
2023/04/13 07:07:22;;;;;;;1.67;1.17;;;12.40;99.90;;;;;;5048800;28;20555;-58
2023/04/13 07:09:48;;;;;;;2.17;0.70;;;12.60;99.90;;;;;;5050389;28;20454;-57
2023/04/13 07:12:14;;;;;;;2.10;0.90;;;12.70;99.90;;;;;;5049220;28;20654;-57
2023/04/13 07:14:40;;;;;;;2.40;0.90;;;12.80;99.90;;;;;;5050410;28;20238;-58
2023/04/13 07:17:06;;;;;;;5.03;1.17;;;12.90;99.90;;;;;;5049272;28;20185;-59
2023/04/13 07:19:33;;;;;;;1.90;1.10;;;13.00;99.90;;;;;;5050365;28;21407;-58
2023/04/13 07:22:00;;;;;;;2.27;1.07;;;13.20;99.90;;;;;;5050681;28;20242;-58
2023/04/13 07:24:29;;;;;;;5.07;2.73;;;13.30;99.90;;;;;;5050261;28;20454;-58
2023/04/13 07:26:56;;;;;;;1.37;0.80;;;13.10;99.90;;;;;;5048727;28;20555;-57
2023/04/13 07:29:22;;;;;;;2.60;0.90;;;13.10;99.90;;;;;;5052893;28;20904;-58
2023/04/13 07:31:49;;;;;;;3.90;1.27;;;13.30;99.90;;;;;;5048712;28;20482;-57
2023/04/13 07:34:15;;;;;;;3.23;1.23;;;13.10;99.90;;;;;;5048790;28;20439;-57
2023/04/13 07:36:41;;;;;;;2.10;1.00;;;13.10;99.90;;;;;;5049197;28;20439;-58
2023/04/13 07:39:08;;;;;;;1.27;0.80;;;13.10;99.90;;;;;;5043893;28;20455;-57
2023/04/13 07:41:34;;;;;;;1.60;0.97;;;13.00;99.90;;;;;;5042963;28;20448;-57
2023/04/13 07:44:00;;;;;;;2.70;0.80;;;12.90;99.90;;;;;;5045976;28;20446;-57
2023/04/13 07:46:26;;;;;;;5.13;1.03;;;12.70;99.90;;;;;;5049827;28;20851;-58
2023/04/13 07:48:55;;;;;;;3.67;1.00;;;12.70;99.90;;;;;;5048870;28;20509;-57
2023/04/13 07:51:22;;;;;;;1.13;0.90;;;12.70;99.90;;;;;;5049733;28;20188;-57
2023/04/13 07:53:47;;;;;;;2.97;1.10;;;12.90;99.90;;;;;;5045930;28;20493;-56
2023/04/13 07:56:14;;;;;;;2.07;0.90;;;13.20;99.90;;;;;;5047773;28;20450;-57
2023/04/13 07:58:40;;;;;;;2.90;0.83;;;13.40;99.90;;;;;;5045599;28;20539;-57
2023/04/13 08:01:06;;;;;;;3.60;1.53;;;13.40;99.90;;;;;;5049339;28;20438;-57
2023/04/13 08:03:33;;;;;;;1.87;0.90;;;13.40;99.90;;;;;;5045837;28;20513;-58
2023/04/13 08:05:59;;;;;;;3.00;1.23;;;13.60;99.90;;;;;;5047488;28;20204;-56
2023/04/13 08:08:25;;;;;;;2.53;1.10;;;13.80;99.90;;;;;;5046636;28;20841;-56
2023/04/13 08:10:51;;;;;;;2.70;1.20;;;13.80;99.90;;;;;;5045908;28;20188;-57
2023/04/13 08:13:17;;;;;;;2.60;0.90;;;13.80;99.90;;;;;;5044472;28;20450;-57
2023/04/13 08:15:43;;;;;;;1.67;0.93;;;13.40;99.90;;;;;;5049618;28;20518;-57
2023/04/13 08:18:08;;;;;;;2.40;0.90;;;13.20;99.90;;;;;;5049487;28;20538;-56
2023/04/13 08:20:36;;;;;;;2.30;0.97;;;13.10;99.90;;;;;;5045544;28;20342;-56
2023/04/13 08:23:02;;;;;;;2.20;0.70;;;13.30;99.90;;;;;;5044345;28;20200;-57
2023/04/13 08:25:28;;;;;;;1.73;0.73;;;13.40;99.90;;;;;;5047518;28;20443;-56
2023/04/13 08:27:54;;;;;;;1.63;0.67;;;13.30;99.90;;;;;;5055778;28;20447;-55
2023/04/13 08:30:20;;;;;;;0.80;0.73;;;13.30;99.90;;;;;;5057908;28;20488;-57
2023/04/13 08:32:45;;;;;;;2.00;0.80;;;13.20;99.90;;;;;;5046785;28;20520;-58
2023/04/13 08:35:11;;;;;;;2.13;0.90;;;13.20;99.90;;;;;;5046625;28;20366;-57
2023/04/13 08:37:38;;;;;;;4.20;0.73;;;13.30;99.90;;;;;;5047437;28;20219;-56
2023/04/13 08:40:06;;;;;;;1.80;0.90;;;13.40;99.90;;;;;;5044211;28;20440;-57
2023/04/13 08:42:33;;;;;;;2.58;1.00;;;13.70;99.90;;;;;;5039601;28;20437;-55
2023/04/13 08:45:01;;;;;;;1.17;0.87;;;13.70;99.90;;;;;;5049191;28;20630;-57
2023/04/13 08:47:27;;;;;;;4.23;1.37;;;13.90;99.90;;;;;;5047048;28;20466;-55
2023/04/13 08:49:57;;;;;;;2.70;1.63;;;14.10;99.90;;;;;;5048432;28;20513;-57
2023/04/13 08:52:25;;;;;;;1.03;0.80;;;14.30;99.90;;;;;;5044936;28;20446;-56
2023/04/13 08:54:57;;;;;;;3.60;0.83;;;14.40;99.90;;;;;;5048698;28;20463;-54
2023/04/13 08:57:23;;;;;;;4.13;1.23;;;14.30;99.90;;;;;;5043778;28;20459;-56
2023/04/13 08:59:53;;;;;;;2.43;1.10;;;14.30;99.90;;;;;;5046555;28;20446;-54
2023/04/13 09:02:24;;;;;;;2.10;0.90;;;14.30;99.90;;;;;;5045484;28;20469;-55
2023/04/13 09:04:56;;;;;;;2.63;1.10;;;14.30;99.90;;;;;;5045005;28;20503;-55
2023/04/13 09:07:26;;;;;;;4.30;1.30;;;14.10;99.90;;;;;;5043226;28;20467;-56
2023/04/13 09:09:56;;;;;;;1.37;1.07;;;13.80;99.90;;;;;;5043857;28;20443;-56
2023/04/13 09:12:23;;;;;;;1.37;0.80;;;13.90;99.90;;;;;;5042892;28;20426;-57
2023/04/13 09:14:49;;;;;;;2.80;1.50;;;14.00;99.90;;;;;;5045838;28;20439;-55
2023/04/13 09:17:26;;;;;;;1.50;1.07;;;14.20;99.90;;;;;;5046994;28;20439;-56
2023/04/13 09:19:52;;;;;;;2.63;0.83;;;14.40;99.90;;;;;;5047920;28;20443;-55
2023/04/13 09:22:17;;;;;;;2.57;0.80;;;14.60;99.90;;;;;;5047664;28;20519;-56
2023/04/13 09:24:43;;;;;;;2.63;1.23;;;14.70;99.90;;;;;;5039649;28;20547;-56
2023/04/13 09:27:22;;;;;;;6.63;1.17;;;14.70;99.90;;;;;;5044185;28;20212;-58
2023/04/13 09:29:53;;;;;;;1.63;1.00;;;14.80;99.90;;;;;;5047950;28;20276;-58
2023/04/13 09:32:28;;;;;;;2.10;1.20;;;15.00;99.90;;;;;;5047261;28;20816;-54
2023/04/13 09:35:04;;;;;;;5.93;3.10;;;14.90;99.90;;;;;;5047198;28;20442;-59
2023/04/13 09:37:35;;;;;;;1.70;0.80;;;14.80;99.90;;;;;;5047212;28;20533;-58
2023/04/13 09:40:10;;;;;;;2.30;0.70;;;14.90;99.90;;;;;;5047537;28;20466;-58
2023/04/13 09:42:37;;;;;;;2.23;1.00;;;14.90;99.90;;;;;;5050549;28;20859;-56
2023/04/13 09:45:03;;;;;;;2.57;0.80;;;14.50;99.90;;;;;;5046690;28;20885;-55
2023/04/13 09:47:39;;;;;;;1.80;0.80;;;14.30;99.90;;;;;;5042801;28;20516;-56
2023/04/13 09:50:30;;;;;;;1.57;0.70;;;14.00;99.90;;;;;;5046853;28;20920;-57
2023/04/13 09:53:00;;;;;;;1.43;0.97;;;13.90;99.90;;;;;;5049100;28;22818;-56
2023/04/13 09:55:26;;;;;;;1.83;0.90;;;13.70;99.90;;;;;;5047464;28;20471;-56
2023/04/13 09:57:52;;;;;;;2.20;0.83;;;13.60;99.90;;;;;;5048062;28;20454;-55
2023/04/13 10:00:22;;;;;;;1.70;1.10;;;13.70;99.90;;;;;;5059287;28;20528;-57
2023/04/13 10:02:49;;;;;;;2.73;1.00;;;13.80;99.90;;;;;;5072710;28;20198;-56
2023/04/13 10:05:16;;;;;;;1.37;0.90;;;14.10;99.90;;;;;;5072373;28;20429;-55
2023/04/13 10:07:43;;;;;;;2.83;1.20;;;14.10;99.90;;;;;;5072666;28;20476;-55
2023/04/13 10:10:10;;;;;;;2.43;1.30;;;14.10;99.90;;;;;;5072225;28;20416;-55
2023/04/13 10:12:41;;;;;;;3.40;1.23;;;14.30;99.90;;;;;;5058683;28;20451;-55
2023/04/13 10:15:17;;;;;;;3.50;1.73;;;14.50;99.90;;;;;;5052875;28;20466;-56
2023/04/13 10:17:54;;;;;;;1.73;1.30;;;14.70;99.90;;;;;;5052535;28;20877;-55
2023/04/13 10:20:21;;;;;;;2.70;0.97;;;14.90;99.90;;;;;;5056793;28;20459;-55
2023/04/13 10:22:47;;;;;;;3.63;0.90;;;15.20;99.90;;;;;;5069307;28;20908;-56
2023/04/13 10:25:14;;;;;;;2.10;1.03;;;15.40;99.90;;;;;;5057429;28;20449;-56
2023/04/13 10:27:40;;;;;;;1.30;0.90;;;15.40;99.90;;;;;;5054379;28;20489;-55
2023/04/13 10:30:16;;;;;;;2.77;1.03;;;15.40;99.90;;;;;;5052010;28;20447;-56
2023/04/13 10:32:42;;;;;;;1.47;0.70;;;15.60;99.90;;;;;;5049044;28;20496;-55
2023/04/13 10:35:10;;;;;;;2.60;1.17;;;15.80;99.90;;;;;;5049853;28;20443;-56
2023/04/13 10:37:38;;;;;;;1.93;1.20;;;15.90;99.90;;;;;;5050473;28;20693;-56
2023/04/13 10:40:09;;;;;;;2.20;1.20;;;16.00;99.90;;;;;;5050413;28;20488;-57
2023/04/13 10:42:48;;;;;;;3.10;1.03;;;16.30;99.90;;;;;;5051975;28;20434;-56
2023/04/13 10:45:26;;;;;;;2.93;1.00;;;16.70;99.90;;;;;;5052011;28;20470;-57
2023/04/13 10:47:57;;;;;;;1.40;1.13;;;17.00;99.90;;;;;;5051756;28;20444;-55
2023/04/13 10:50:25;;;;;;;2.80;1.23;;;16.70;99.90;;;;;;5051860;28;20446;-55
2023/04/13 10:53:05;;;;;;;2.53;1.00;;;16.50;99.90;;;;;;5050924;28;20446;-56
2023/04/13 10:55:35;;;;;;;1.07;0.90;;;16.40;99.90;;;;;;5051456;28;20513;-56
2023/04/13 10:58:02;;;;;;;2.27;0.70;;;16.50;99.90;;;;;;5051617;28;20414;-57
2023/04/13 11:00:29;;;;;;;5.73;1.73;;;16.70;99.90;;;;;;5051229;28;21128;-55
2023/04/13 11:02:58;;;;;;;2.27;1.23;;;16.80;99.90;;;;;;5051659;28;20450;-56
2023/04/13 11:05:26;;;;;;;1.90;0.80;;;17.00;99.90;;;;;;5048861;28;20518;-56
2023/04/13 11:07:52;;;;;;;1.80;1.07;;;17.10;99.90;;;;;;5049575;28;20446;-56
2023/04/13 11:10:26;;;;;;;1.80;0.70;;;16.90;99.90;;;;;;5046792;28;20457;-56
2023/04/13 11:12:53;;;;;;;1.80;1.10;;;16.60;99.90;;;;;;5048089;28;20642;-55
2023/04/13 11:15:31;;;;;;;1.63;1.00;;;16.80;99.90;;;;;;5051374;28;20931;-56
2023/04/13 11:17:58;;;;;;;1.47;0.80;;;16.60;99.90;;;;;;5046701;28;20442;-56
2023/04/13 11:20:38;;;;;;;1.70;0.90;;;16.90;99.90;;;;;;5051848;28;20513;-56
2023/04/13 11:23:14;;;;;;;1.70;1.30;;;16.70;99.90;;;;;;5043889;28;20463;-56
2023/04/13 11:25:53;;;;;;;11.07;1.67;;;16.70;99.90;;;;;;5053443;28;20433;-56
2023/04/13 11:28:24;;;;;;;1.80;1.00;;;17.00;99.90;;;;;;5048125;28;21014;-54
2023/04/13 11:30:55;;;;;;;2.07;1.80;;;17.20;99.90;;;;;;5046066;28;20426;-57
2023/04/13 11:33:30;;;;;;;2.20;1.00;;;16.90;99.90;;;;;;5048516;28;20432;-56
2023/04/13 11:36:00;;;;;;;6.60;1.00;;;17.00;99.90;;;;;;5045999;28;20481;-56
2023/04/13 11:38:27;;;;;;;3.63;1.00;;;16.80;99.90;;;;;;5049415;28;20439;-56
2023/04/13 11:41:00;;;;;;;2.17;0.87;;;16.60;99.90;;;;;;5047276;28;20899;-56
2023/04/13 11:43:26;;;;;;;2.13;0.80;;;16.80;99.90;;;;;;5047744;28;20426;-56
2023/04/13 11:45:53;;;;;;;2.10;0.80;;;17.20;99.90;;;;;;5053382;28;20620;-56
2023/04/13 11:48:19;;;;;;;1.30;1.00;;;17.40;99.90;;;;;;5046424;28;20250;-56
2023/04/13 11:50:45;;;;;;;2.23;1.00;;;17.30;99.90;;;;;;5045383;28;20510;-56
2023/04/13 11:53:12;;;;;;;2.03;1.30;;;17.00;99.90;;;;;;5047980;28;20541;-56
2023/04/13 11:55:40;;;;;;;1.50;0.87;;;16.70;99.90;;;;;;5055814;28;20940;-55
2023/04/13 11:58:14;;;;;;;1.93;0.70;;;16.40;99.90;;;;;;5042515;28;20458;-55
2023/04/13 12:00:40;;;;;;;2.40;0.80;;;16.00;99.90;;;;;;5044481;28;20451;-55
2023/04/13 12:03:14;;;;;;;2.80;1.50;;;16.20;99.90;;;;;;5044048;28;20529;-56
2023/04/13 12:05:41;;;;;;;1.43;0.70;;;16.20;99.90;;;;;;5044025;28;20577;-56
2023/04/13 12:08:07;;;;;;;3.43;1.07;;;16.30;99.90;;;;;;5046864;28;21016;-56
2023/04/13 12:10:35;;;;;;;1.53;0.70;;;16.10;99.90;;;;;;5032934;28;20461;-56
2023/04/13 12:13:07;;;;;;;2.00;0.90;;;16.30;99.90;;;;;;5036905;28;20214;-55
2023/04/13 12:15:34;;;;;;;1.50;1.10;;;16.10;99.90;;;;;;5044849;28;20528;-56
2023/04/13 12:18:02;;;;;;;0.97;0.80;;;16.10;99.90;;;;;;5041048;28;21000;-56
2023/04/13 12:20:39;;;;;;;2.70;0.90;;;16.10;99.90;;;;;;5036538;28;20465;-57
2023/04/13 12:23:23;;;;;;;2.00;1.13;;;16.20;99.90;;;;;;5044687;28;20441;-56
2023/04/13 12:26:03;;;;;;;3.33;1.10;;;16.50;99.90;;;;;;5037635;28;20599;-56
2023/04/13 12:28:34;;;;;;;3.23;1.10;;;16.70;99.90;;;;;;5048424;28;20460;-56
2023/04/13 12:31:06;;;;;;;1.70;0.90;;;16.70;99.90;;;;;;5044337;28;21026;-56
2023/04/13 12:33:32;;;;;;;1.77;0.80;;;16.60;99.90;;;;;;5046616;28;20446;-55
2023/04/13 12:35:57;;;;;;;1.73;0.90;;;16.80;99.90;;;;;;5043885;28;20474;-57
2023/04/13 12:38:23;;;;;;;2.20;0.90;;;16.70;99.90;;;;;;5049025;28;20180;-56
2023/04/13 12:40:58;;;;;;;2.93;0.93;;;16.60;99.90;;;;;;5048424;28;20271;-56
2023/04/13 12:43:25;;;;;;;1.57;0.93;;;16.60;99.90;;;;;;5043806;28;20530;-57
2023/04/13 12:45:51;;;;;;;2.93;1.00;;;16.70;99.90;;;;;;5049320;28;20474;-57
2023/04/13 12:48:17;;;;;;;1.47;1.10;;;16.80;99.90;;;;;;5040892;28;20446;-57
2023/04/13 12:50:43;;;;;;;1.10;0.90;;;17.10;99.90;;;;;;5048598;28;20454;-57
2023/04/13 12:53:10;;;;;;;1.60;1.20;;;17.00;99.90;;;;;;5044453;28;20482;-57
2023/04/13 12:55:37;;;;;;;2.53;1.30;;;16.90;99.90;;;;;;5048978;28;20235;-57